首页
METAR-TAF:

METAR-TAF

机场 :

易卜拉欣·納西爾國際機場

馬累, 马尔代夫

纬度: 04-12N, 经度: 073-32E, 海拔: 2米

当前天气观测

该预报发布于3小时和32分钟前的01:00 UTC
风速11节,风向
温度 28°C
湿度 84%
气压 1010 hPa
能见度10公里或以上
少量云层高于1800英尺, 塔状积云.
多云层高于27000英尺

METAR: VRMM 190100Z 09011KT 9999 FEW018TCU BKN270 28/25 Q1010 NOSIG

时间: 09:32 (04:32 UTC)

预报

该预报发布于5小时和32分钟前的23:00 UTC
预报有效从19日的 00点(UTC)到 20日的 06点(UTC)
风速10节,风向
能见度10公里或以上
少量云层高于1800英尺

TAF: VRMM 182300Z 1900/2006 09010KT 9999 FEW018

超过4000个机场的气象观测和天气预报(METAR&TAF报告)。

可查询的气象台以黄色和红色小点在地图上表示。

将鼠标移到小点上方,可查看气象台名称。

然后点击查看天气观测和预报。

如需切换地图:点击带黑十字的绿色按钮放大地图;点击带横线的绿色按钮缩小地图;或者点击绿色箭头查看邻近地区的地图。


METAR-TAF: